createdAt,value
2017-11-10T00:00:23.509Z,48.83
2017-11-10T00:02:50.267Z,49.55
2017-11-10T00:05:16.257Z,46.78
2017-11-10T00:07:42.987Z,48.42
2017-11-10T00:10:08.957Z,47.15
2017-11-10T00:12:35.135Z,45.67
2017-11-10T00:15:01.850Z,45.83
2017-11-10T00:17:38.262Z,41.90
2017-11-10T00:20:04.978Z,48.43
2017-11-10T00:22:30.958Z,46.90
2017-11-10T00:24:56.972Z,46.50
2017-11-10T00:27:22.954Z,45.50
2017-11-10T00:29:49.661Z,47.40
2017-11-10T00:32:16.032Z,45.92
2017-11-10T00:34:42.752Z,46.85
2017-11-10T00:37:08.719Z,47.38
2017-11-10T00:39:34.710Z,46.90
2017-11-10T00:42:01.437Z,44.67
2017-11-10T00:44:27.407Z,44.33
2017-11-10T00:46:54.206Z,43.95
2017-11-10T00:49:20.931Z,43.13
2017-11-10T00:51:46.903Z,44.20
2017-11-10T00:54:13.186Z,40.45
2017-11-10T00:56:39.966Z,41.97
2017-11-10T00:59:05.938Z,44.23
2017-11-10T01:01:31.931Z,41.92
2017-11-10T01:03:57.910Z,45.15
2017-11-10T01:06:24.621Z,50.30
2017-11-10T01:08:50.667Z,49.03
2017-11-10T01:11:17.392Z,47.22
2017-11-10T01:13:49.292Z,49.60
2017-11-10T01:16:15.482Z,48.20
2017-11-10T01:18:41.455Z,44.30
2017-11-10T01:21:07.413Z,49.05
2017-11-10T01:23:33.965Z,46.00
2017-11-10T01:26:00.670Z,50.12
2017-11-10T01:28:26.646Z,49.25
2017-11-10T01:30:52.646Z,52.83
2017-11-10T01:33:19.375Z,49.20
2017-11-10T01:35:45.361Z,53.03
2017-11-10T01:38:11.358Z,52.70
2017-11-10T01:40:37.348Z,59.90
2017-11-10T01:43:03.330Z,55.50
2017-11-10T01:45:29.625Z,52.05
2017-11-10T01:47:59.538Z,51.15
2017-11-10T01:50:25.543Z,45.08
2017-11-10T01:52:52.272Z,43.70
2017-11-10T01:55:26.001Z,43.28
2017-11-10T01:57:52.631Z,43.05
2017-11-10T02:00:18.622Z,43.97
2017-11-10T02:02:44.609Z,39.42
2017-11-10T02:05:10.594Z,37.65
2017-11-10T02:07:37.318Z,37.47
2017-11-10T02:10:04.030Z,36.80
2017-11-10T02:12:30.048Z,39.10
2017-11-10T02:14:56.053Z,41.93
2017-11-10T02:17:22.038Z,36.05
2017-11-10T02:19:48.756Z,39.20
2017-11-10T02:22:15.466Z,37.35
2017-11-10T02:24:41.433Z,34.78
2017-11-10T02:27:08.178Z,42.05
2017-11-10T02:29:34.889Z,38.30
2017-11-10T02:32:01.623Z,42.17
2017-11-10T02:34:27.661Z,36.53
2017-11-10T02:36:54.401Z,40.03
2017-11-10T02:39:21.138Z,38.07
2017-11-10T02:41:48.604Z,40.63
2017-11-10T02:44:15.309Z,38.83
2017-11-10T02:46:41.294Z,37.33
2017-11-10T02:49:07.277Z,42.38
2017-11-10T02:51:33.248Z,42.47
2017-11-10T02:53:59.228Z,46.33
2017-11-10T02:56:26.023Z,42.20
2017-11-10T02:58:52.024Z,43.30
2017-11-10T03:01:18.006Z,43.20
2017-11-10T03:03:44.984Z,52.53
2017-11-10T03:06:10.941Z,49.53
2017-11-10T03:08:36.926Z,48.87
2017-11-10T03:11:02.930Z,54.23
2017-11-10T03:13:29.658Z,51.37
2017-11-10T03:15:56.399Z,57.03
2017-11-10T03:18:22.435Z,50.70
2017-11-10T03:20:48.428Z,48.20
2017-11-10T03:23:14.414Z,51.15
2017-11-10T03:25:40.418Z,50.50
2017-11-10T03:28:06.390Z,50.75
2017-11-10T03:30:33.117Z,56.53
2017-11-10T03:32:59.117Z,49.28
2017-11-10T03:35:25.145Z,50.00
2017-11-10T03:37:51.131Z,51.85
2017-11-10T03:40:17.155Z,56.33
2017-11-10T03:42:43.141Z,52.30
2017-11-10T03:45:09.230Z,53.25
2017-11-10T03:47:35.234Z,48.07
2017-11-10T03:50:01.250Z,47.05
2017-11-10T03:52:27.226Z,49.75
2017-11-10T03:54:53.206Z,54.15
2017-11-10T03:57:19.198Z,51.50
2017-11-10T03:59:46.266Z,52.78
2017-11-10T04:02:12.269Z,52.78
2017-11-10T04:04:38.245Z,47.30
2017-11-10T04:07:04.211Z,55.95
2017-11-10T04:09:30.938Z,55.03
2017-11-10T04:11:57.670Z,55.83
2017-11-10T04:14:23.638Z,46.08
2017-11-10T04:16:49.662Z,49.80
2017-11-10T04:19:15.650Z,52.72
2017-11-10T04:21:42.369Z,45.50
2017-11-10T04:24:08.389Z,48.87
2017-11-10T04:26:34.357Z,43.63
2017-11-10T04:29:00.350Z,45.72
2017-11-10T04:31:27.074Z,45.83
2017-11-10T04:33:53.054Z,48.65
2017-11-10T04:36:19.082Z,43.53
2017-11-10T04:38:45.072Z,50.97
2017-11-10T04:41:11.086Z,45.28
2017-11-10T04:43:37.854Z,51.20
2017-11-10T04:46:03.827Z,56.70
2017-11-10T04:48:29.785Z,48.85
2017-11-10T04:50:55.794Z,55.60
2017-11-10T04:53:22.509Z,57.50
2017-11-10T04:55:48.467Z,56.90
2017-11-10T04:58:14.654Z,56.72
2017-11-10T05:00:40.622Z,57.08
2017-11-10T05:03:06.614Z,54.60
2017-11-10T05:05:33.364Z,54.33
2017-11-10T05:07:59.382Z,57.28
2017-11-10T05:10:26.089Z,58.08
2017-11-10T05:12:52.343Z,51.50
2017-11-10T05:15:18.318Z,57.60
2017-11-10T05:17:44.296Z,55.03
2017-11-10T05:20:10.301Z,53.13
2017-11-10T05:22:37.014Z,54.63
2017-11-10T05:25:02.991Z,55.85
2017-11-10T05:27:29.004Z,59.40
2017-11-10T05:29:54.979Z,47.97
2017-11-10T05:32:20.958Z,48.85
2017-11-10T05:34:46.980Z,51.25
2017-11-10T05:37:12.995Z,51.10
2017-11-10T05:39:38.982Z,49.10
2017-11-10T05:42:05.844Z,49.80
2017-11-10T05:44:32.578Z,48.40
2017-11-10T05:46:58.610Z,53.28
2017-11-10T05:49:25.372Z,50.70
2017-11-10T05:51:51.363Z,47.30
2017-11-10T05:54:17.341Z,46.65
2017-11-10T05:56:43.326Z,48.55
2017-11-10T05:59:09.306Z,47.67
2017-11-10T06:01:35.305Z,49.78
2017-11-10T06:04:01.302Z,53.97
2017-11-10T06:06:27.270Z,53.20
2017-11-10T06:08:53.419Z,46.58
2017-11-10T06:11:20.118Z,46.37
2017-11-10T06:13:46.081Z,47.53
2017-11-10T06:16:12.814Z,49.58
2017-11-10T06:18:39.530Z,53.63
2017-11-10T06:21:05.518Z,51.10
2017-11-10T06:23:31.522Z,49.77
2017-11-10T06:25:57.512Z,48.45
2017-11-10T06:28:24.239Z,52.40
2017-11-10T06:30:50.255Z,53.20
2017-11-10T06:33:16.229Z,50.50
2017-11-10T06:35:42.202Z,50.60
2017-11-10T06:38:08.193Z,53.00
2017-11-10T06:40:34.195Z,50.20
2017-11-10T06:43:00.200Z,53.03
2017-11-10T06:45:26.197Z,52.53
2017-11-10T06:47:52.162Z,55.30
2017-11-10T06:50:18.162Z,54.43
2017-11-10T06:52:44.872Z,53.40
2017-11-10T06:55:10.898Z,54.65
2017-11-10T06:57:36.914Z,55.35
2017-11-10T07:00:02.865Z,54.80
2017-11-10T07:02:29.570Z,55.22
2017-11-10T07:04:55.656Z,56.40
2017-11-10T07:07:21.642Z,60.38
2017-11-10T07:09:48.373Z,55.37
2017-11-10T07:12:14.342Z,57.95
2017-11-10T07:14:40.348Z,57.17
2017-11-10T07:17:06.646Z,55.53
2017-11-10T07:19:33.382Z,60.42
2017-11-10T07:22:00.106Z,53.35
2017-11-10T07:24:26.095Z,55.53
2017-11-10T07:26:52.067Z,56.33
2017-11-10T07:29:18.021Z,57.57
2017-11-10T07:31:44.022Z,54.03
2017-11-10T07:34:10.734Z,52.43
2017-11-10T07:36:36.703Z,54.75
2017-11-10T07:39:02.706Z,55.15
2017-11-10T07:41:29.413Z,51.67
2017-11-10T07:43:55.392Z,50.03
2017-11-10T07:46:22.474Z,53.08
2017-11-10T07:48:48.442Z,56.22
2017-11-10T07:51:14.423Z,48.60
2017-11-10T07:53:40.436Z,44.90
2017-11-10T07:56:06.415Z,46.13
2017-11-10T07:58:32.378Z,46.03
2017-11-10T08:00:58.369Z,49.70
2017-11-10T08:03:24.351Z,45.77
2017-11-10T08:05:51.129Z,52.10
2017-11-10T08:08:17.110Z,45.47
2017-11-10T08:10:43.089Z,43.40
2017-11-10T08:13:09.042Z,41.60
2017-11-10T08:15:35.036Z,49.65
2017-11-10T08:18:01.002Z,41.25
2017-11-10T08:20:27.723Z,41.58
2017-11-10T08:22:53.748Z,46.73
2017-11-10T08:25:19.731Z,46.20
2017-11-10T08:27:45.700Z,48.15
2017-11-10T08:30:12.459Z,41.70
2017-11-10T08:32:39.166Z,43.53
2017-11-10T08:35:05.143Z,43.95
2017-11-10T08:37:31.130Z,41.63
2017-11-10T08:39:57.850Z,39.00
2017-11-10T08:42:23.819Z,45.53
2017-11-10T08:44:49.802Z,38.55
2017-11-10T08:47:16.560Z,42.97
2017-11-10T08:49:43.349Z,40.63
2017-11-10T08:52:09.315Z,43.00
2017-11-10T08:54:36.151Z,45.57
2017-11-10T08:57:02.882Z,41.28
2017-11-10T08:59:29.610Z,38.47
2017-11-10T09:01:55.614Z,40.00
2017-11-10T09:04:21.590Z,43.63
2017-11-10T09:06:47.567Z,39.50
2017-11-10T09:09:13.594Z,44.40
2017-11-10T09:11:39.551Z,39.72
2017-11-10T09:14:06.258Z,41.37
2017-11-10T09:16:32.254Z,45.20
2017-11-10T09:18:58.311Z,44.63
2017-11-10T09:21:24.333Z,49.30
2017-11-10T09:23:50.363Z,47.90
2017-11-10T09:26:17.097Z,54.22
2017-11-10T09:28:45.930Z,51.95
2017-11-10T09:31:11.926Z,45.50
2017-11-10T09:33:44.807Z,50.53
2017-11-10T09:36:14.870Z,52.65
2017-11-10T09:38:42.913Z,57.05
2017-11-10T09:41:11.797Z,51.80
2017-11-10T09:43:56.371Z,51.83
2017-11-10T09:46:28.625Z,56.07
2017-11-10T09:49:00.711Z,55.38
2017-11-10T09:51:32.718Z,54.72
2017-11-10T09:54:04.856Z,52.23
2017-11-10T09:59:41.423Z,48.67
2017-11-10T10:02:08.403Z,47.58
2017-11-10T10:04:35.388Z,48.38
2017-11-10T10:07:04.413Z,49.03
2017-11-10T10:09:33.250Z,51.57
2017-11-10T10:12:05.935Z,45.20
2017-11-10T10:14:33.595Z,44.00
2017-11-10T10:17:06.683Z,48.70
2017-11-10T10:22:45.833Z,45.47
2017-11-10T10:25:12.594Z,48.15
2017-11-10T10:27:38.578Z,43.20
2017-11-10T10:30:04.559Z,37.50
2017-11-10T10:32:30.515Z,46.35
2017-11-10T10:34:57.267Z,45.60
2017-11-10T10:37:23.285Z,50.50
2017-11-10T10:39:49.291Z,47.33
2017-11-10T10:42:15.271Z,40.95
2017-11-10T10:44:41.242Z,46.42
2017-11-10T10:47:07.234Z,39.25
2017-11-10T10:49:33.221Z,44.17
2017-11-10T10:51:59.927Z,38.92
2017-11-10T10:54:25.958Z,45.75
2017-11-10T10:56:52.701Z,42.65
2017-11-10T10:59:18.683Z,41.25
2017-11-10T11:01:44.958Z,43.47
2017-11-10T11:04:11.682Z,45.53
2017-11-10T11:06:37.689Z,40.78
2017-11-10T11:09:03.845Z,47.20
2017-11-10T11:11:30.586Z,48.53
2017-11-10T11:13:57.322Z,42.60
2017-11-10T11:16:24.124Z,43.43
2017-11-10T11:18:50.104Z,42.08
2017-11-10T11:21:16.070Z,41.87
2017-11-10T11:23:43.252Z,43.58
2017-11-10T11:26:09.962Z,34.40
2017-11-10T11:28:35.952Z,37.83
2017-11-10T11:31:01.959Z,32.97
2017-11-10T11:33:27.932Z,32.00
2017-11-10T11:35:53.909Z,31.23
2017-11-10T11:38:19.915Z,28.30
2017-11-10T11:40:45.913Z,30.20
2017-11-10T11:43:11.869Z,32.28
2017-11-10T11:45:37.854Z,32.33
2017-11-10T11:48:03.817Z,34.10
2017-11-10T11:50:29.795Z,33.50
2017-11-10T11:52:56.086Z,35.53
2017-11-10T11:55:22.058Z,29.42
2017-11-10T11:57:48.770Z,31.62
2017-11-10T12:00:14.918Z,32.67
2017-11-10T12:02:41.634Z,32.38
2017-11-10T12:05:07.609Z,29.02
2017-11-10T12:07:33.623Z,34.40
2017-11-10T12:09:59.582Z,30.12
2017-11-10T12:12:25.571Z,36.13
2017-11-10T12:14:51.562Z,28.10
2017-11-10T12:17:18.289Z,32.25
2017-11-10T12:19:44.263Z,27.87
2017-11-10T12:22:11.822Z,34.05
2017-11-10T12:24:37.822Z,30.98
2017-11-10T12:27:03.818Z,30.40
2017-11-10T12:29:29.842Z,29.58
2017-11-10T12:31:55.831Z,35.08
2017-11-10T12:34:21.827Z,32.72
2017-11-10T12:36:47.807Z,26.02
2017-11-10T12:39:13.815Z,28.50
2017-11-10T12:41:39.816Z,26.27
2017-11-10T12:44:05.785Z,31.23
2017-11-10T12:46:33.086Z,34.30
2017-11-10T12:48:59.061Z,43.13
2017-11-10T12:51:25.782Z,34.60
2017-11-10T12:53:52.130Z,28.25
2017-11-10T12:56:18.859Z,32.88
2017-11-10T12:58:45.612Z,30.08
2017-11-10T13:01:12.367Z,29.10
2017-11-10T13:03:38.343Z,31.53
2017-11-10T13:06:04.314Z,32.67
2017-11-10T13:08:30.623Z,26.95
2017-11-10T13:10:57.355Z,19.97
2017-11-10T13:13:24.081Z,15.38
2017-11-10T13:15:50.057Z,13.23
2017-11-10T13:18:16.052Z,9.25
2017-11-10T13:20:42.765Z,9.50
2017-11-10T13:23:08.802Z,11.10
2017-11-10T13:25:35.530Z,9.77
2017-11-10T13:28:01.492Z,9.00
2017-11-10T13:30:27.479Z,8.52
2017-11-10T13:32:55.034Z,8.67
2017-11-10T13:35:21.757Z,7.62
2017-11-10T13:37:47.728Z,7.03
2017-11-10T13:40:13.729Z,6.40
2017-11-10T13:42:40.450Z,6.30
2017-11-10T13:45:06.419Z,8.40
2017-11-10T13:47:32.602Z,5.55
2017-11-10T13:49:58.574Z,7.32
2017-11-10T13:52:24.530Z,5.20
2017-11-10T13:54:50.538Z,7.62
2017-11-10T13:57:16.510Z,9.63
2017-11-10T13:59:42.486Z,7.87
2017-11-10T14:02:08.745Z,5.73
2017-11-10T14:04:35.467Z,6.68
2017-11-10T14:07:02.183Z,7.87
2017-11-10T14:09:28.444Z,9.48
2017-11-10T14:11:54.430Z,7.05
2017-11-10T14:14:20.428Z,6.53
2017-11-10T14:16:46.422Z,5.95
2017-11-10T14:19:13.129Z,7.50
2017-11-10T14:21:39.117Z,5.97
2017-11-10T14:24:05.170Z,10.38
2017-11-10T14:26:31.142Z,7.62
2017-11-10T14:28:57.116Z,8.90
2017-11-10T14:31:23.371Z,7.35
2017-11-10T14:33:50.079Z,15.40
2017-11-10T14:36:16.047Z,11.85
2017-11-10T14:38:42.775Z,33.83
2017-11-10T14:41:09.497Z,58.45
2017-11-10T14:43:36.214Z,43.30
2017-11-10T14:46:02.489Z,17.23
2017-11-10T14:48:29.198Z,16.25
2017-11-10T14:50:55.207Z,11.45
2017-11-10T14:53:21.366Z,12.43
2017-11-10T14:55:48.092Z,14.15
2017-11-10T14:58:14.069Z,11.40
2017-11-10T15:00:40.963Z,10.93
2017-11-10T15:03:07.693Z,15.52
2017-11-10T15:05:33.662Z,17.73
2017-11-10T15:07:59.630Z,13.27
2017-11-10T15:10:26.370Z,13.98
2017-11-10T15:12:52.347Z,15.07
2017-11-10T15:15:18.528Z,15.60
2017-11-10T15:17:44.531Z,13.30
2017-11-10T15:20:10.501Z,18.33
2017-11-10T15:22:36.595Z,23.08
2017-11-10T15:25:02.559Z,21.50
2017-11-10T15:27:28.546Z,19.15
2017-11-10T15:29:55.603Z,20.37
2017-11-10T15:32:22.331Z,20.43
2017-11-10T15:34:49.086Z,25.60
2017-11-10T15:37:15.834Z,22.85
2017-11-10T15:39:41.804Z,26.20
2017-11-10T15:42:08.395Z,19.02
2017-11-10T15:44:35.412Z,18.65
2017-11-10T15:47:02.179Z,15.05
2017-11-10T15:49:28.178Z,21.33
2017-11-10T15:51:54.935Z,20.17
2017-11-10T15:54:20.920Z,21.45
2017-11-10T15:56:46.910Z,18.03
2017-11-10T15:59:12.899Z,18.92
2017-11-10T16:01:38.882Z,17.25
2017-11-10T16:04:05.001Z,16.30
2017-11-10T16:06:31.266Z,18.12
2017-11-10T16:08:57.236Z,20.23
2017-11-10T16:11:23.486Z,19.55
2017-11-10T16:13:49.479Z,14.50
2017-11-10T16:16:15.463Z,17.83
2017-11-10T16:18:41.486Z,19.77
2017-11-10T16:21:07.499Z,15.85
2017-11-10T16:23:34.241Z,16.07
2017-11-10T16:26:00.450Z,12.77
2017-11-10T16:28:27.186Z,13.07
2017-11-10T16:30:53.920Z,14.15
2017-11-10T16:33:19.911Z,18.20
2017-11-10T16:35:45.892Z,7.80
2017-11-10T16:38:12.039Z,11.82
2017-11-10T16:40:38.047Z,7.03
2017-11-10T16:43:04.030Z,11.27
2017-11-10T16:45:30.007Z,10.13
2017-11-10T16:47:56.059Z,10.50
2017-11-10T16:50:22.039Z,9.80
2017-11-10T16:52:48.003Z,10.30
2017-11-10T16:55:14.260Z,6.50
2017-11-10T16:57:41.011Z,6.50
2017-11-10T17:00:06.999Z,4.53
2017-11-10T17:02:33.007Z,7.23
2017-11-10T17:04:59.000Z,5.93
2017-11-10T17:07:24.998Z,4.35
2017-11-10T17:09:51.982Z,5.72
2017-11-10T17:12:17.958Z,5.07
2017-11-10T17:14:43.955Z,5.65
2017-11-10T17:17:10.303Z,4.78
2017-11-10T17:19:37.022Z,4.25
2017-11-10T17:22:03.005Z,5.47
2017-11-10T17:24:29.018Z,7.82
2017-11-10T17:26:55.005Z,10.13
2017-11-10T17:29:21.726Z,6.35
2017-11-10T17:31:48.521Z,9.30
2017-11-10T17:34:14.498Z,114.03
2017-11-10T17:36:40.503Z,8.35
2017-11-10T17:39:06.522Z,9.50
2017-11-10T17:41:32.507Z,5.65
2017-11-10T17:43:58.696Z,6.82
2017-11-10T17:46:25.451Z,8.80
2017-11-10T17:48:51.457Z,12.02
2017-11-10T17:51:35.579Z,10.50
2017-11-10T17:54:01.553Z,8.27
2017-11-10T17:56:27.559Z,11.27
2017-11-10T17:58:54.317Z,11.60
2017-11-10T18:01:20.319Z,10.13
2017-11-10T18:03:46.330Z,15.65
2017-11-10T18:06:13.301Z,12.32
2017-11-10T18:08:39.291Z,14.37
2017-11-10T18:11:06.027Z,13.05
2017-11-10T18:13:32.001Z,12.07
2017-11-10T18:15:58.006Z,13.90
2017-11-10T18:18:23.983Z,14.93
2017-11-10T18:20:49.967Z,14.75
2017-11-10T18:23:16.146Z,13.85
2017-11-10T18:25:42.875Z,15.80
2017-11-10T18:28:09.673Z,19.65
2017-11-10T18:30:35.863Z,19.15
2017-11-10T18:33:02.594Z,35.33
2017-11-10T18:35:29.310Z,18.60
2017-11-10T18:37:55.334Z,16.23
2017-11-10T18:40:21.350Z,15.07
2017-11-10T18:42:47.364Z,14.10
2017-11-10T18:45:13.346Z,13.97
2017-11-10T18:47:39.403Z,13.60
2017-11-10T18:50:06.511Z,14.13
2017-11-10T18:52:32.536Z,14.87
2017-11-10T18:55:02.295Z,22.92
2017-11-10T18:57:29.163Z,17.90
2017-11-10T18:59:55.886Z,12.30
2017-11-10T19:02:22.006Z,19.52
2017-11-10T19:04:48.037Z,16.70
2017-11-10T19:07:14.007Z,16.55
2017-11-10T19:09:40.097Z,16.23
2017-11-10T19:12:07.966Z,18.00
2017-11-10T19:14:33.967Z,15.82
2017-11-10T19:17:00.715Z,13.38
2017-11-10T19:19:27.462Z,13.23
2017-11-10T19:21:53.614Z,19.73
2017-11-10T19:24:19.624Z,14.85
2017-11-10T19:26:46.205Z,15.13
2017-11-10T19:29:12.212Z,14.48
2017-11-10T19:31:38.199Z,160.00
2017-11-10T19:34:04.198Z,104.70
2017-11-10T19:36:30.959Z,17.80
2017-11-10T19:38:56.935Z,17.70
2017-11-10T19:41:22.943Z,16.45
2017-11-10T19:43:48.934Z,14.17
2017-11-10T19:46:14.930Z,20.12
2017-11-10T19:48:41.980Z,16.60
2017-11-10T19:51:08.723Z,15.30
2017-11-10T19:53:34.700Z,16.65
2017-11-10T19:56:00.700Z,15.32
2017-11-10T19:58:26.702Z,21.33
2017-11-10T20:00:52.658Z,157.87
2017-11-10T20:03:18.643Z,13.75
2017-11-10T20:05:44.695Z,13.48
2017-11-10T20:08:10.685Z,11.93
2017-11-10T20:10:36.999Z,16.92
2017-11-10T20:13:03.016Z,15.43
2017-11-10T20:15:29.715Z,13.20
2017-11-10T20:17:55.722Z,14.15
2017-11-10T20:20:21.691Z,20.80
2017-11-10T20:22:48.431Z,12.75
2017-11-10T20:25:15.276Z,10.82
2017-11-10T20:27:41.247Z,16.80
2017-11-10T20:30:07.418Z,9.40
2017-11-10T20:32:34.162Z,9.38
2017-11-10T20:35:00.952Z,15.23
2017-11-10T20:37:26.973Z,6.22
2017-11-10T20:39:54.094Z,15.10
2017-11-10T20:42:20.094Z,10.02
2017-11-10T20:44:46.830Z,8.68
2017-11-10T20:47:13.583Z,11.15
2017-11-10T20:49:39.619Z,9.80
2017-11-10T20:52:05.645Z,7.93
2017-11-10T20:54:31.756Z,14.40
2017-11-10T20:56:57.764Z,15.10
2017-11-10T20:59:24.519Z,10.25
2017-11-10T21:01:50.551Z,8.77
2017-11-10T21:04:16.509Z,10.20
2017-11-10T21:06:42.498Z,11.25
2017-11-10T21:09:08.584Z,10.38
2017-11-10T21:11:35.303Z,11.95
2017-11-10T21:14:01.300Z,17.12
2017-11-10T21:16:27.298Z,63.42
2017-11-10T21:18:53.263Z,16.73
2017-11-10T21:21:19.251Z,9.15
2017-11-10T21:23:45.674Z,13.13
2017-11-10T21:26:12.756Z,8.93
2017-11-10T21:28:38.804Z,8.40
2017-11-10T21:31:04.811Z,10.43
2017-11-10T21:33:30.794Z,13.32
2017-11-10T21:35:56.758Z,10.48
2017-11-10T21:38:22.754Z,6.40
2017-11-10T21:40:48.814Z,12.18
2017-11-10T21:43:14.787Z,9.50
2017-11-10T21:45:40.777Z,11.45
2017-11-10T21:48:07.516Z,11.98
2017-11-10T21:50:34.226Z,9.43
2017-11-10T21:53:00.229Z,8.25
2017-11-10T21:55:26.222Z,9.43
2017-11-10T21:57:52.202Z,9.38
2017-11-10T22:00:18.993Z,11.70
2017-11-10T22:02:45.015Z,9.88
2017-11-10T22:05:11.147Z,13.38
2017-11-10T22:07:37.134Z,6.70
2017-11-10T22:10:03.911Z,11.12
2017-11-10T22:12:29.895Z,11.40
2017-11-10T22:14:56.818Z,15.00
2017-11-10T22:17:22.820Z,13.95
2017-11-10T22:19:48.792Z,13.68
2017-11-10T22:22:14.777Z,11.05
2017-11-10T22:24:40.759Z,17.40
2017-11-10T22:27:07.151Z,11.18
2017-11-10T22:29:33.872Z,13.20
2017-11-10T22:32:00.575Z,14.80
2017-11-10T22:34:26.952Z,16.80
2017-11-10T22:36:53.666Z,12.13
2017-11-10T22:39:19.639Z,14.93
2017-11-10T22:41:45.714Z,12.63
2017-11-10T22:44:12.003Z,13.85
2017-11-10T22:46:37.997Z,35.90
2017-11-10T22:49:04.738Z,11.93
2017-11-10T22:51:30.714Z,10.07
2017-11-10T22:53:56.702Z,10.57
2017-11-10T22:56:22.661Z,12.45
2017-11-10T22:58:48.646Z,15.35
2017-11-10T23:01:14.643Z,12.80
2017-11-10T23:03:41.354Z,8.10
2017-11-10T23:06:07.351Z,16.52
2017-11-10T23:08:34.360Z,11.38
2017-11-10T23:11:00.373Z,16.58
2017-11-10T23:13:27.107Z,10.43
2017-11-10T23:15:53.841Z,10.97
2017-11-10T23:18:20.541Z,10.43
2017-11-10T23:20:46.514Z,11.02
2017-11-10T23:23:12.846Z,8.75
2017-11-10T23:25:38.873Z,12.25
2017-11-10T23:28:04.843Z,7.57
2017-11-10T23:30:30.859Z,8.48
2017-11-10T23:32:56.843Z,6.33
2017-11-10T23:35:22.810Z,10.25
2017-11-10T23:37:48.944Z,7.78
2017-11-10T23:40:14.927Z,6.47
2017-11-10T23:42:40.912Z,7.30
2017-11-10T23:45:07.941Z,14.47
2017-11-10T23:47:33.886Z,11.55
2017-11-10T23:50:00.582Z,15.18
2017-11-10T23:52:26.551Z,10.00
2017-11-10T23:54:52.528Z,9.47
2017-11-10T23:57:18.683Z,10.70
2017-11-10T23:59:45.411Z,10.63
